sensor_id;sensor_type;location;lat;lon;timestamp;P1;durP1;ratioP1;P2;durP2;ratioP2
13291;SDS011;6714;53.056;8.690;2023-10-19T00:02:15;8.27;;;6.77;;
13291;SDS011;6714;53.056;8.690;2023-10-19T00:04:59;9.57;;;8.07;;
13291;SDS011;6714;53.056;8.690;2023-10-19T00:07:41;9.80;;;7.27;;
13291;SDS011;6714;53.056;8.690;2023-10-19T00:10:24;9.70;;;8.43;;
13291;SDS011;6714;53.056;8.690;2023-10-19T00:13:06;11.43;;;9.83;;
13291;SDS011;6714;53.056;8.690;2023-10-19T00:15:50;10.60;;;9.20;;
13291;SDS011;6714;53.056;8.690;2023-10-19T00:18:32;10.80;;;9.70;;
13291;SDS011;6714;53.056;8.690;2023-10-19T00:21:14;10.37;;;9.20;;
13291;SDS011;6714;53.056;8.690;2023-10-19T00:24:00;9.83;;;8.70;;
13291;SDS011;6714;53.056;8.690;2023-10-19T00:26:45;9.70;;;8.60;;
13291;SDS011;6714;53.056;8.690;2023-10-19T00:29:28;9.27;;;7.50;;
13291;SDS011;6714;53.056;8.690;2023-10-19T00:32:14;9.80;;;8.57;;
13291;SDS011;6714;53.056;8.690;2023-10-19T00:34:59;9.17;;;8.27;;
13291;SDS011;6714;53.056;8.690;2023-10-19T00:37:48;9.20;;;8.30;;
13291;SDS011;6714;53.056;8.690;2023-10-19T00:40:32;9.40;;;7.43;;
13291;SDS011;6714;53.056;8.690;2023-10-19T00:43:25;9.63;;;8.40;;
13291;SDS011;6714;53.056;8.690;2023-10-19T00:46:07;10.90;;;9.23;;
13291;SDS011;6714;53.056;8.690;2023-10-19T00:48:52;11.03;;;9.87;;
13291;SDS011;6714;53.056;8.690;2023-10-19T00:51:36;10.77;;;9.67;;
13291;SDS011;6714;53.056;8.690;2023-10-19T00:54:34;10.53;;;9.03;;
13291;SDS011;6714;53.056;8.690;2023-10-19T00:57:18;10.27;;;8.60;;
13291;SDS011;6714;53.056;8.690;2023-10-19T01:00:03;12.63;;;10.50;;
13291;SDS011;6714;53.056;8.690;2023-10-19T01:02:52;9.67;;;8.77;;
13291;SDS011;6714;53.056;8.690;2023-10-19T01:05:41;12.33;;;10.67;;
13291;SDS011;6714;53.056;8.690;2023-10-19T01:08:28;12.00;;;10.00;;
13291;SDS011;6714;53.056;8.690;2023-10-19T01:11:21;10.60;;;9.03;;
13291;SDS011;6714;53.056;8.690;2023-10-19T01:14:17;11.83;;;10.63;;
13291;SDS011;6714;53.056;8.690;2023-10-19T01:17:00;9.23;;;8.23;;
13291;SDS011;6714;53.056;8.690;2023-10-19T01:19:46;14.17;;;12.67;;
13291;SDS011;6714;53.056;8.690;2023-10-19T01:22:30;11.43;;;9.50;;
13291;SDS011;6714;53.056;8.690;2023-10-19T01:25:13;10.70;;;9.60;;
13291;SDS011;6714;53.056;8.690;2023-10-19T01:27:56;11.30;;;10.10;;
13291;SDS011;6714;53.056;8.690;2023-10-19T01:30:39;10.17;;;9.13;;
13291;SDS011;6714;53.056;8.690;2023-10-19T01:33:22;8.77;;;7.90;;
13291;SDS011;6714;53.056;8.690;2023-10-19T01:36:04;11.57;;;10.37;;
13291;SDS011;6714;53.056;8.690;2023-10-19T01:38:55;11.33;;;9.83;;
13291;SDS011;6714;53.056;8.690;2023-10-19T01:41:42;9.87;;;8.60;;
13291;SDS011;6714;53.056;8.690;2023-10-19T01:44:23;9.03;;;8.10;;
13291;SDS011;6714;53.056;8.690;2023-10-19T01:47:06;9.77;;;8.73;;
13291;SDS011;6714;53.056;8.690;2023-10-19T01:49:47;11.13;;;8.10;;
13291;SDS011;6714;53.056;8.690;2023-10-19T01:52:32;13.30;;;11.23;;
13291;SDS011;6714;53.056;8.690;2023-10-19T01:55:13;11.23;;;9.67;;
13291;SDS011;6714;53.056;8.690;2023-10-19T01:58:02;13.63;;;12.23;;
13291;SDS011;6714;53.056;8.690;2023-10-19T02:00:43;13.97;;;10.90;;
13291;SDS011;6714;53.056;8.690;2023-10-19T02:03:25;12.37;;;10.87;;
13291;SDS011;6714;53.056;8.690;2023-10-19T02:06:08;13.73;;;12.23;;
13291;SDS011;6714;53.056;8.690;2023-10-19T02:08:59;12.27;;;10.47;;
13291;SDS011;6714;53.056;8.690;2023-10-19T02:11:40;12.20;;;10.63;;
13291;SDS011;6714;53.056;8.690;2023-10-19T02:14:24;9.20;;;8.30;;
13291;SDS011;6714;53.056;8.690;2023-10-19T02:17:08;10.77;;;9.30;;
13291;SDS011;6714;53.056;8.690;2023-10-19T02:19:49;12.57;;;10.77;;
13291;SDS011;6714;53.056;8.690;2023-10-19T02:22:33;12.17;;;9.60;;
13291;SDS011;6714;53.056;8.690;2023-10-19T02:25:15;13.47;;;11.70;;
13291;SDS011;6714;53.056;8.690;2023-10-19T02:27:57;12.37;;;10.83;;
13291;SDS011;6714;53.056;8.690;2023-10-19T02:30:41;15.13;;;12.40;;
13291;SDS011;6714;53.056;8.690;2023-10-19T02:33:24;9.77;;;8.77;;
13291;SDS011;6714;53.056;8.690;2023-10-19T02:36:06;11.10;;;9.77;;
13291;SDS011;6714;53.056;8.690;2023-10-19T02:38:52;12.87;;;11.10;;
13291;SDS011;6714;53.056;8.690;2023-10-19T02:41:34;12.50;;;11.07;;
13291;SDS011;6714;53.056;8.690;2023-10-19T02:44:17;13.87;;;12.13;;
13291;SDS011;6714;53.056;8.690;2023-10-19T02:47:04;15.33;;;13.73;;
13291;SDS011;6714;53.056;8.690;2023-10-19T02:49:49;12.90;;;10.77;;
13291;SDS011;6714;53.056;8.690;2023-10-19T02:52:35;10.90;;;9.47;;
13291;SDS011;6714;53.056;8.690;2023-10-19T02:55:17;15.63;;;13.10;;
13291;SDS011;6714;53.056;8.690;2023-10-19T02:58:00;17.97;;;14.67;;
13291;SDS011;6714;53.056;8.690;2023-10-19T03:00:45;19.00;;;14.97;;
13291;SDS011;6714;53.056;8.690;2023-10-19T03:03:27;12.27;;;11.00;;
13291;SDS011;6714;53.056;8.690;2023-10-19T03:06:11;14.77;;;12.50;;
13291;SDS011;6714;53.056;8.690;2023-10-19T03:08:52;12.30;;;11.00;;
13291;SDS011;6714;53.056;8.690;2023-10-19T03:11:37;14.50;;;12.03;;
13291;SDS011;6714;53.056;8.690;2023-10-19T03:14:20;16.60;;;14.37;;
13291;SDS011;6714;53.056;8.690;2023-10-19T03:17:05;15.30;;;12.47;;
13291;SDS011;6714;53.056;8.690;2023-10-19T03:19:50;14.27;;;11.67;;
13291;SDS011;6714;53.056;8.690;2023-10-19T03:22:32;12.53;;;11.27;;
13291;SDS011;6714;53.056;8.690;2023-10-19T03:25:15;14.10;;;11.57;;
13291;SDS011;6714;53.056;8.690;2023-10-19T03:28:11;16.00;;;13.50;;
13291;SDS011;6714;53.056;8.690;2023-10-19T03:30:56;17.93;;;13.50;;
13291;SDS011;6714;53.056;8.690;2023-10-19T03:33:39;14.37;;;12.83;;
13291;SDS011;6714;53.056;8.690;2023-10-19T03:36:23;11.00;;;9.87;;
13291;SDS011;6714;53.056;8.690;2023-10-19T03:39:06;15.23;;;12.43;;
13291;SDS011;6714;53.056;8.690;2023-10-19T03:41:53;16.47;;;13.50;;
13291;SDS011;6714;53.056;8.690;2023-10-19T03:44:35;12.60;;;10.40;;
13291;SDS011;6714;53.056;8.690;2023-10-19T03:47:25;18.33;;;13.47;;
13291;SDS011;6714;53.056;8.690;2023-10-19T03:50:11;15.47;;;13.67;;
13291;SDS011;6714;53.056;8.690;2023-10-19T03:53:01;15.27;;;11.60;;
13291;SDS011;6714;53.056;8.690;2023-10-19T03:55:44;17.47;;;13.50;;
13291;SDS011;6714;53.056;8.690;2023-10-19T03:58:27;17.80;;;14.30;;
13291;SDS011;6714;53.056;8.690;2023-10-19T04:01:10;15.33;;;12.90;;
13291;SDS011;6714;53.056;8.690;2023-10-19T04:03:56;16.57;;;14.43;;
13291;SDS011;6714;53.056;8.690;2023-10-19T04:06:39;12.23;;;10.93;;
13291;SDS011;6714;53.056;8.690;2023-10-19T04:09:27;18.93;;;15.20;;
13291;SDS011;6714;53.056;8.690;2023-10-19T04:12:10;15.00;;;13.00;;
13291;SDS011;6714;53.056;8.690;2023-10-19T04:14:52;14.37;;;12.73;;
13291;SDS011;6714;53.056;8.690;2023-10-19T04:17:34;14.00;;;12.43;;
13291;SDS011;6714;53.056;8.690;2023-10-19T04:20:17;15.77;;;13.07;;
13291;SDS011;6714;53.056;8.690;2023-10-19T04:23:09;17.70;;;14.93;;
13291;SDS011;6714;53.056;8.690;2023-10-19T04:25:55;14.93;;;13.00;;
13291;SDS011;6714;53.056;8.690;2023-10-19T04:28:39;14.77;;;12.53;;
13291;SDS011;6714;53.056;8.690;2023-10-19T04:31:24;21.33;;;15.87;;
13291;SDS011;6714;53.056;8.690;2023-10-19T04:34:07;15.80;;;12.63;;
13291;SDS011;6714;53.056;8.690;2023-10-19T04:36:49;14.23;;;12.00;;
13291;SDS011;6714;53.056;8.690;2023-10-19T04:39:32;16.03;;;12.50;;
13291;SDS011;6714;53.056;8.690;2023-10-19T04:42:17;16.90;;;14.40;;
13291;SDS011;6714;53.056;8.690;2023-10-19T04:45:03;17.07;;;13.97;;
13291;SDS011;6714;53.056;8.690;2023-10-19T04:47:45;17.37;;;15.40;;
13291;SDS011;6714;53.056;8.690;2023-10-19T04:50:27;13.40;;;12.00;;
13291;SDS011;6714;53.056;8.690;2023-10-19T04:53:10;15.37;;;13.00;;
13291;SDS011;6714;53.056;8.690;2023-10-19T04:55:52;14.13;;;12.57;;
13291;SDS011;6714;53.056;8.690;2023-10-19T04:58:36;17.23;;;13.77;;
13291;SDS011;6714;53.056;8.690;2023-10-19T05:01:18;15.43;;;12.93;;
13291;SDS011;6714;53.056;8.690;2023-10-19T05:04:00;14.77;;;12.80;;
13291;SDS011;6714;53.056;8.690;2023-10-19T05:06:42;12.50;;;11.17;;
13291;SDS011;6714;53.056;8.690;2023-10-19T05:09:24;17.60;;;14.70;;
13291;SDS011;6714;53.056;8.690;2023-10-19T05:12:06;14.87;;;13.03;;
13291;SDS011;6714;53.056;8.690;2023-10-19T05:14:51;15.10;;;13.03;;
13291;SDS011;6714;53.056;8.690;2023-10-19T05:17:33;16.00;;;14.20;;
13291;SDS011;6714;53.056;8.690;2023-10-19T05:20:16;13.33;;;11.27;;
13291;SDS011;6714;53.056;8.690;2023-10-19T05:22:58;14.73;;;12.60;;
13291;SDS011;6714;53.056;8.690;2023-10-19T05:25:40;13.87;;;12.37;;
13291;SDS011;6714;53.056;8.690;2023-10-19T05:28:23;18.87;;;15.43;;
13291;SDS011;6714;53.056;8.690;2023-10-19T05:31:07;13.97;;;12.27;;
13291;SDS011;6714;53.056;8.690;2023-10-19T05:33:52;14.57;;;13.03;;
13291;SDS011;6714;53.056;8.690;2023-10-19T05:36:34;15.77;;;12.43;;
13291;SDS011;6714;53.056;8.690;2023-10-19T05:39:16;13.63;;;12.17;;
13291;SDS011;6714;53.056;8.690;2023-10-19T05:41:58;14.60;;;12.57;;
13291;SDS011;6714;53.056;8.690;2023-10-19T05:44:41;12.40;;;10.40;;
13291;SDS011;6714;53.056;8.690;2023-10-19T05:47:25;13.83;;;12.37;;
13291;SDS011;6714;53.056;8.690;2023-10-19T05:50:07;15.13;;;12.83;;
13291;SDS011;6714;53.056;8.690;2023-10-19T05:52:49;9.63;;;8.70;;
13291;SDS011;6714;53.056;8.690;2023-10-19T05:55:32;12.53;;;10.87;;
13291;SDS011;6714;53.056;8.690;2023-10-19T05:58:15;13.53;;;11.30;;
13291;SDS011;6714;53.056;8.690;2023-10-19T06:00:58;12.33;;;11.13;;
13291;SDS011;6714;53.056;8.690;2023-10-19T06:03:41;10.97;;;9.57;;
13291;SDS011;6714;53.056;8.690;2023-10-19T06:06:24;10.77;;;9.13;;
13291;SDS011;6714;53.056;8.690;2023-10-19T06:09:06;13.33;;;11.27;;
13291;SDS011;6714;53.056;8.690;2023-10-19T06:11:49;12.40;;;10.80;;
13291;SDS011;6714;53.056;8.690;2023-10-19T06:14:31;12.30;;;11.10;;
13291;SDS011;6714;53.056;8.690;2023-10-19T06:17:13;10.57;;;9.47;;
13291;SDS011;6714;53.056;8.690;2023-10-19T06:20:00;13.27;;;11.57;;
13291;SDS011;6714;53.056;8.690;2023-10-19T06:22:43;11.87;;;10.43;;
13291;SDS011;6714;53.056;8.690;2023-10-19T06:25:30;11.57;;;10.40;;
13291;SDS011;6714;53.056;8.690;2023-10-19T06:28:12;10.30;;;9.20;;
13291;SDS011;6714;53.056;8.690;2023-10-19T06:30:55;10.00;;;9.00;;
13291;SDS011;6714;53.056;8.690;2023-10-19T06:33:37;9.13;;;8.07;;
13291;SDS011;6714;53.056;8.690;2023-10-19T06:36:22;9.30;;;8.33;;
13291;SDS011;6714;53.056;8.690;2023-10-19T06:39:04;9.73;;;8.63;;
13291;SDS011;6714;53.056;8.690;2023-10-19T06:41:48;8.57;;;7.67;;
13291;SDS011;6714;53.056;8.690;2023-10-19T06:44:30;10.10;;;9.10;;
13291;SDS011;6714;53.056;8.690;2023-10-19T06:47:12;10.43;;;9.33;;
13291;SDS011;6714;53.056;8.690;2023-10-19T06:49:55;9.73;;;8.50;;
13291;SDS011;6714;53.056;8.690;2023-10-19T06:52:38;8.37;;;7.47;;
13291;SDS011;6714;53.056;8.690;2023-10-19T06:55:21;7.43;;;6.73;;
13291;SDS011;6714;53.056;8.690;2023-10-19T06:58:03;9.37;;;8.37;;
13291;SDS011;6714;53.056;8.690;2023-10-19T07:00:45;8.07;;;7.27;;
13291;SDS011;6714;53.056;8.690;2023-10-19T07:03:36;8.77;;;7.87;;
13291;SDS011;6714;53.056;8.690;2023-10-19T07:06:18;7.90;;;7.17;;
13291;SDS011;6714;53.056;8.690;2023-10-19T07:09:02;8.37;;;7.57;;
13291;SDS011;6714;53.056;8.690;2023-10-19T07:11:46;8.77;;;7.87;;
13291;SDS011;6714;53.056;8.690;2023-10-19T07:14:33;7.50;;;6.80;;
13291;SDS011;6714;53.056;8.690;2023-10-19T07:17:15;6.83;;;6.23;;
13291;SDS011;6714;53.056;8.690;2023-10-19T07:19:57;8.53;;;7.20;;
13291;SDS011;6714;53.056;8.690;2023-10-19T07:22:39;8.37;;;7.57;;
13291;SDS011;6714;53.056;8.690;2023-10-19T07:25:23;7.40;;;6.70;;
13291;SDS011;6714;53.056;8.690;2023-10-19T07:28:06;8.70;;;7.83;;
13291;SDS011;6714;53.056;8.690;2023-10-19T07:30:49;7.77;;;7.07;;
13291;SDS011;6714;53.056;8.690;2023-10-19T07:33:32;8.17;;;7.37;;
13291;SDS011;6714;53.056;8.690;2023-10-19T07:36:18;6.67;;;6.03;;
13291;SDS011;6714;53.056;8.690;2023-10-19T07:39:01;8.30;;;7.50;;
13291;SDS011;6714;53.056;8.690;2023-10-19T07:41:44;7.90;;;7.10;;
13291;SDS011;6714;53.056;8.690;2023-10-19T07:44:27;8.30;;;7.50;;
13291;SDS011;6714;53.056;8.690;2023-10-19T07:47:11;8.13;;;7.33;;
13291;SDS011;6714;53.056;8.690;2023-10-19T07:49:54;6.90;;;6.20;;
13291;SDS011;6714;53.056;8.690;2023-10-19T07:52:36;9.27;;;7.90;;
13291;SDS011;6714;53.056;8.690;2023-10-19T07:55:21;9.83;;;8.87;;
13291;SDS011;6714;53.056;8.690;2023-10-19T07:58:05;7.40;;;6.70;;
13291;SDS011;6714;53.056;8.690;2023-10-19T08:00:47;8.17;;;7.33;;
13291;SDS011;6714;53.056;8.690;2023-10-19T08:03:29;8.00;;;7.20;;
13291;SDS011;6714;53.056;8.690;2023-10-19T08:06:12;9.73;;;8.73;;
13291;SDS011;6714;53.056;8.690;2023-10-19T08:08:54;7.53;;;6.70;;
13291;SDS011;6714;53.056;8.690;2023-10-19T08:11:36;8.47;;;7.63;;
13291;SDS011;6714;53.056;8.690;2023-10-19T08:14:20;6.97;;;6.30;;
13291;SDS011;6714;53.056;8.690;2023-10-19T08:17:01;6.80;;;6.20;;
13291;SDS011;6714;53.056;8.690;2023-10-19T08:19:43;7.80;;;6.83;;
13291;SDS011;6714;53.056;8.690;2023-10-19T08:22:25;6.60;;;6.00;;
13291;SDS011;6714;53.056;8.690;2023-10-19T08:25:08;5.57;;;5.07;;
13291;SDS011;6714;53.056;8.690;2023-10-19T08:27:53;7.60;;;6.23;;
13291;SDS011;6714;53.056;8.690;2023-10-19T08:30:40;6.10;;;5.50;;
13291;SDS011;6714;53.056;8.690;2023-10-19T08:33:25;6.57;;;5.97;;
13291;SDS011;6714;53.056;8.690;2023-10-19T08:36:15;6.90;;;6.30;;
13291;SDS011;6714;53.056;8.690;2023-10-19T08:38:59;6.30;;;5.80;;
13291;SDS011;6714;53.056;8.690;2023-10-19T08:41:45;5.77;;;5.13;;
13291;SDS011;6714;53.056;8.690;2023-10-19T08:44:29;6.90;;;6.20;;
13291;SDS011;6714;53.056;8.690;2023-10-19T08:47:13;6.63;;;6.03;;
13291;SDS011;6714;53.056;8.690;2023-10-19T08:49:55;5.87;;;5.37;;
13291;SDS011;6714;53.056;8.690;2023-10-19T08:52:39;4.73;;;4.40;;
13291;SDS011;6714;53.056;8.690;2023-10-19T08:55:21;6.57;;;6.00;;
13291;SDS011;6714;53.056;8.690;2023-10-19T08:58:03;5.90;;;5.40;;
13291;SDS011;6714;53.056;8.690;2023-10-19T09:00:47;5.63;;;5.13;;
13291;SDS011;6714;53.056;8.690;2023-10-19T09:03:32;5.53;;;5.03;;
13291;SDS011;6714;53.056;8.690;2023-10-19T09:06:15;5.87;;;5.37;;
13291;SDS011;6714;53.056;8.690;2023-10-19T09:08:57;4.47;;;4.07;;
13291;SDS011;6714;53.056;8.690;2023-10-19T09:11:40;5.13;;;4.73;;
13291;SDS011;6714;53.056;8.690;2023-10-19T09:14:30;5.00;;;4.50;;
13291;SDS011;6714;53.056;8.690;2023-10-19T09:17:13;5.00;;;4.50;;
13291;SDS011;6714;53.056;8.690;2023-10-19T09:19:59;4.50;;;4.13;;
13291;SDS011;6714;53.056;8.690;2023-10-19T09:22:50;3.93;;;3.63;;
13291;SDS011;6714;53.056;8.690;2023-10-19T09:25:33;5.73;;;4.37;;
13291;SDS011;6714;53.056;8.690;2023-10-19T09:28:15;4.73;;;4.33;;
13291;SDS011;6714;53.056;8.690;2023-10-19T09:30:57;4.67;;;4.27;;
13291;SDS011;6714;53.056;8.690;2023-10-19T09:33:40;4.03;;;3.73;;
13291;SDS011;6714;53.056;8.690;2023-10-19T09:36:25;4.10;;;3.70;;
13291;SDS011;6714;53.056;8.690;2023-10-19T09:39:09;3.67;;;3.37;;
13291;SDS011;6714;53.056;8.690;2023-10-19T09:41:52;3.67;;;3.37;;
13291;SDS011;6714;53.056;8.690;2023-10-19T09:44:39;4.03;;;3.70;;
13291;SDS011;6714;53.056;8.690;2023-10-19T09:47:22;3.83;;;3.53;;
13291;SDS011;6714;53.056;8.690;2023-10-19T09:50:08;3.50;;;3.30;;
13291;SDS011;6714;53.056;8.690;2023-10-19T09:52:52;3.87;;;3.57;;
13291;SDS011;6714;53.056;8.690;2023-10-19T09:55:37;3.80;;;3.50;;
13291;SDS011;6714;53.056;8.690;2023-10-19T09:58:21;3.23;;;2.80;;
13291;SDS011;6714;53.056;8.690;2023-10-19T10:01:05;3.77;;;3.30;;
13291;SDS011;6714;53.056;8.690;2023-10-19T10:03:52;3.70;;;3.40;;
13291;SDS011;6714;53.056;8.690;2023-10-19T10:09:36;3.30;;;3.10;;
13291;SDS011;6714;53.056;8.690;2023-10-19T10:12:24;2.70;;;2.50;;
13291;SDS011;6714;53.056;8.690;2023-10-19T10:15:07;2.53;;;2.43;;
13291;SDS011;6714;53.056;8.690;2023-10-19T10:17:50;2.87;;;2.67;;
13291;SDS011;6714;53.056;8.690;2023-10-19T10:20:35;3.27;;;3.07;;
13291;SDS011;6714;53.056;8.690;2023-10-19T10:23:19;3.00;;;2.80;;
13291;SDS011;6714;53.056;8.690;2023-10-19T10:26:06;3.27;;;2.97;;
13291;SDS011;6714;53.056;8.690;2023-10-19T10:29:07;3.00;;;2.80;;
13291;SDS011;6714;53.056;8.690;2023-10-19T10:31:52;3.20;;;3.00;;
13291;SDS011;6714;53.056;8.690;2023-10-19T10:34:43;2.80;;;2.60;;
13291;SDS011;6714;53.056;8.690;2023-10-19T10:37:25;2.63;;;2.43;;
13291;SDS011;6714;53.056;8.690;2023-10-19T10:40:08;2.67;;;2.57;;
13291;SDS011;6714;53.056;8.690;2023-10-19T10:43:05;2.80;;;2.60;;
13291;SDS011;6714;53.056;8.690;2023-10-19T10:45:47;2.60;;;2.50;;
13291;SDS011;6714;53.056;8.690;2023-10-19T10:48:30;3.33;;;3.03;;
13291;SDS011;6714;53.056;8.690;2023-10-19T10:51:16;2.70;;;2.50;;
13291;SDS011;6714;53.056;8.690;2023-10-19T10:53:58;2.90;;;2.70;;
13291;SDS011;6714;53.056;8.690;2023-10-19T10:56:40;2.70;;;2.50;;
13291;SDS011;6714;53.056;8.690;2023-10-19T10:59:25;2.87;;;2.67;;
13291;SDS011;6714;53.056;8.690;2023-10-19T11:02:16;2.50;;;2.30;;
13291;SDS011;6714;53.056;8.690;2023-10-19T11:04:59;2.57;;;2.47;;
13291;SDS011;6714;53.056;8.690;2023-10-19T11:07:41;2.70;;;2.50;;
13291;SDS011;6714;53.056;8.690;2023-10-19T11:10:26;2.50;;;2.40;;
13291;SDS011;6714;53.056;8.690;2023-10-19T11:13:09;2.70;;;2.60;;
13291;SDS011;6714;53.056;8.690;2023-10-19T11:15:53;2.53;;;2.43;;
13291;SDS011;6714;53.056;8.690;2023-10-19T11:18:36;2.67;;;2.50;;
13291;SDS011;6714;53.056;8.690;2023-10-19T11:21:20;2.33;;;2.23;;
13291;SDS011;6714;53.056;8.690;2023-10-19T11:24:04;3.13;;;2.83;;
13291;SDS011;6714;53.056;8.690;2023-10-19T11:26:47;2.70;;;2.50;;
13291;SDS011;6714;53.056;8.690;2023-10-19T11:29:29;3.10;;;2.90;;
13291;SDS011;6714;53.056;8.690;2023-10-19T11:32:13;3.10;;;2.90;;
13291;SDS011;6714;53.056;8.690;2023-10-19T11:34:55;2.43;;;2.33;;
13291;SDS011;6714;53.056;8.690;2023-10-19T11:37:47;3.23;;;3.03;;
13291;SDS011;6714;53.056;8.690;2023-10-19T11:40:29;2.70;;;2.60;;
13291;SDS011;6714;53.056;8.690;2023-10-19T11:43:12;2.93;;;2.73;;
13291;SDS011;6714;53.056;8.690;2023-10-19T11:45:54;2.97;;;2.77;;
13291;SDS011;6714;53.056;8.690;2023-10-19T11:48:38;3.07;;;2.77;;
13291;SDS011;6714;53.056;8.690;2023-10-19T11:51:22;2.67;;;2.57;;
13291;SDS011;6714;53.056;8.690;2023-10-19T11:54:05;3.33;;;3.13;;
13291;SDS011;6714;53.056;8.690;2023-10-19T11:56:47;3.60;;;3.30;;
13291;SDS011;6714;53.056;8.690;2023-10-19T11:59:29;3.90;;;3.60;;
13291;SDS011;6714;53.056;8.690;2023-10-19T12:02:11;3.43;;;3.23;;
13291;SDS011;6714;53.056;8.690;2023-10-19T12:05:01;3.03;;;2.83;;
13291;SDS011;6714;53.056;8.690;2023-10-19T12:07:44;2.40;;;2.30;;
13291;SDS011;6714;53.056;8.690;2023-10-19T12:10:26;3.27;;;3.07;;
13291;SDS011;6714;53.056;8.690;2023-10-19T12:13:13;3.83;;;3.53;;
13291;SDS011;6714;53.056;8.690;2023-10-19T12:15:56;3.10;;;2.90;;
13291;SDS011;6714;53.056;8.690;2023-10-19T12:18:38;4.03;;;3.70;;
13291;SDS011;6714;53.056;8.690;2023-10-19T12:21:23;4.90;;;4.50;;
13291;SDS011;6714;53.056;8.690;2023-10-19T12:24:08;4.37;;;4.00;;
13291;SDS011;6714;53.056;8.690;2023-10-19T12:26:51;4.20;;;3.83;;
13291;SDS011;6714;53.056;8.690;2023-10-19T12:29:33;4.40;;;4.00;;
13291;SDS011;6714;53.056;8.690;2023-10-19T12:32:15;3.40;;;3.20;;
13291;SDS011;6714;53.056;8.690;2023-10-19T12:34:58;3.63;;;3.40;;
13291;SDS011;6714;53.056;8.690;2023-10-19T12:37:42;4.80;;;4.30;;
13291;SDS011;6714;53.056;8.690;2023-10-19T12:40:32;3.40;;;3.20;;
13291;SDS011;6714;53.056;8.690;2023-10-19T12:43:15;5.17;;;4.70;;
13291;SDS011;6714;53.056;8.690;2023-10-19T12:45:59;4.60;;;4.20;;
13291;SDS011;6714;53.056;8.690;2023-10-19T12:48:41;4.37;;;3.97;;
13291;SDS011;6714;53.056;8.690;2023-10-19T12:51:24;4.73;;;4.43;;
13291;SDS011;6714;53.056;8.690;2023-10-19T12:54:08;2.93;;;2.73;;
13291;SDS011;6714;53.056;8.690;2023-10-19T12:56:50;3.37;;;3.17;;
13291;SDS011;6714;53.056;8.690;2023-10-19T12:59:34;3.97;;;3.67;;
13291;SDS011;6714;53.056;8.690;2023-10-19T13:02:17;5.27;;;4.57;;
13291;SDS011;6714;53.056;8.690;2023-10-19T13:05:00;3.63;;;3.33;;
13291;SDS011;6714;53.056;8.690;2023-10-19T13:07:43;4.70;;;4.33;;
13291;SDS011;6714;53.056;8.690;2023-10-19T13:10:29;3.33;;;3.13;;
13291;SDS011;6714;53.056;8.690;2023-10-19T13:13:13;3.80;;;3.50;;
13291;SDS011;6714;53.056;8.690;2023-10-19T13:15:56;4.07;;;3.77;;
13291;SDS011;6714;53.056;8.690;2023-10-19T13:18:39;3.80;;;3.50;;
13291;SDS011;6714;53.056;8.690;2023-10-19T13:21:22;5.10;;;4.60;;
13291;SDS011;6714;53.056;8.690;2023-10-19T13:24:08;5.50;;;5.00;;
13291;SDS011;6714;53.056;8.690;2023-10-19T13:26:51;4.37;;;3.97;;
13291;SDS011;6714;53.056;8.690;2023-10-19T13:29:34;4.20;;;3.90;;
13291;SDS011;6714;53.056;8.690;2023-10-19T13:32:18;4.60;;;4.20;;
13291;SDS011;6714;53.056;8.690;2023-10-19T13:35:00;5.40;;;5.00;;
13291;SDS011;6714;53.056;8.690;2023-10-19T13:37:43;5.13;;;4.73;;
13291;SDS011;6714;53.056;8.690;2023-10-19T13:40:26;5.50;;;5.07;;
13291;SDS011;6714;53.056;8.690;2023-10-19T13:43:11;5.77;;;5.27;;
13291;SDS011;6714;53.056;8.690;2023-10-19T13:45:55;5.37;;;4.87;;
13291;SDS011;6714;53.056;8.690;2023-10-19T13:48:37;6.70;;;4.10;;
13291;SDS011;6714;53.056;8.690;2023-10-19T13:51:19;5.43;;;4.93;;
13291;SDS011;6714;53.056;8.690;2023-10-19T13:54:02;5.27;;;4.87;;
13291;SDS011;6714;53.056;8.690;2023-10-19T13:56:45;6.03;;;5.53;;
13291;SDS011;6714;53.056;8.690;2023-10-19T13:59:29;4.07;;;3.77;;
13291;SDS011;6714;53.056;8.690;2023-10-19T14:02:13;4.37;;;3.97;;
13291;SDS011;6714;53.056;8.690;2023-10-19T14:04:55;7.13;;;6.43;;
13291;SDS011;6714;53.056;8.690;2023-10-19T14:07:40;4.10;;;3.80;;
13291;SDS011;6714;53.056;8.690;2023-10-19T14:10:23;4.93;;;4.53;;
13291;SDS011;6714;53.056;8.690;2023-10-19T14:13:05;5.80;;;5.27;;
13291;SDS011;6714;53.056;8.690;2023-10-19T14:15:49;5.37;;;4.90;;
13291;SDS011;6714;53.056;8.690;2023-10-19T14:18:31;5.37;;;4.93;;
13291;SDS011;6714;53.056;8.690;2023-10-19T14:21:14;6.17;;;5.57;;
13291;SDS011;6714;53.056;8.690;2023-10-19T14:23:56;5.13;;;4.73;;
13291;SDS011;6714;53.056;8.690;2023-10-19T14:26:38;4.67;;;4.27;;
13291;SDS011;6714;53.056;8.690;2023-10-19T14:29:22;4.97;;;4.57;;
13291;SDS011;6714;53.056;8.690;2023-10-19T14:32:06;6.13;;;5.63;;
13291;SDS011;6714;53.056;8.690;2023-10-19T14:34:48;5.50;;;5.03;;
13291;SDS011;6714;53.056;8.690;2023-10-19T14:37:30;5.73;;;5.13;;
13291;SDS011;6714;53.056;8.690;2023-10-19T14:40:13;7.47;;;6.77;;
13291;SDS011;6714;53.056;8.690;2023-10-19T14:42:56;4.70;;;4.40;;
13291;SDS011;6714;53.056;8.690;2023-10-19T14:45:39;6.27;;;5.77;;
13291;SDS011;6714;53.056;8.690;2023-10-19T14:48:23;6.57;;;6.00;;
13291;SDS011;6714;53.056;8.690;2023-10-19T14:51:06;3.43;;;3.20;;
13291;SDS011;6714;53.056;8.690;2023-10-19T14:53:49;7.00;;;6.30;;
13291;SDS011;6714;53.056;8.690;2023-10-19T14:56:31;7.60;;;6.87;;
13291;SDS011;6714;53.056;8.690;2023-10-19T14:59:13;5.63;;;5.13;;
13291;SDS011;6714;53.056;8.690;2023-10-19T15:01:55;6.37;;;5.77;;
13291;SDS011;6714;53.056;8.690;2023-10-19T15:04:39;7.67;;;6.97;;
13291;SDS011;6714;53.056;8.690;2023-10-19T15:07:21;11.30;;;10.20;;
13291;SDS011;6714;53.056;8.690;2023-10-19T15:10:04;7.83;;;6.87;;
13291;SDS011;6714;53.056;8.690;2023-10-19T15:12:50;6.37;;;5.73;;
13291;SDS011;6714;53.056;8.690;2023-10-19T15:15:32;6.57;;;5.97;;
13291;SDS011;6714;53.056;8.690;2023-10-19T15:18:14;7.03;;;6.33;;
13291;SDS011;6714;53.056;8.690;2023-10-19T15:21:06;4.57;;;4.10;;
13291;SDS011;6714;53.056;8.690;2023-10-19T15:23:49;8.03;;;7.23;;
13291;SDS011;6714;53.056;8.690;2023-10-19T15:26:33;8.33;;;7.47;;
13291;SDS011;6714;53.056;8.690;2023-10-19T15:29:15;8.97;;;8.07;;
13291;SDS011;6714;53.056;8.690;2023-10-19T15:31:57;8.50;;;7.57;;
13291;SDS011;6714;53.056;8.690;2023-10-19T15:34:40;7.17;;;6.43;;
13291;SDS011;6714;53.056;8.690;2023-10-19T15:37:24;8.17;;;7.37;;
13291;SDS011;6714;53.056;8.690;2023-10-19T15:40:07;7.43;;;6.70;;
13291;SDS011;6714;53.056;8.690;2023-10-19T15:42:52;8.87;;;7.13;;
13291;SDS011;6714;53.056;8.690;2023-10-19T15:45:35;8.80;;;7.90;;
13291;SDS011;6714;53.056;8.690;2023-10-19T15:48:19;7.20;;;6.50;;
13291;SDS011;6714;53.056;8.690;2023-10-19T15:51:02;7.33;;;6.60;;
13291;SDS011;6714;53.056;8.690;2023-10-19T15:53:46;7.53;;;6.77;;
13291;SDS011;6714;53.056;8.690;2023-10-19T15:56:29;10.00;;;9.00;;
13291;SDS011;6714;53.056;8.690;2023-10-19T15:59:11;7.13;;;6.37;;
13291;SDS011;6714;53.056;8.690;2023-10-19T16:01:53;7.33;;;6.50;;
13291;SDS011;6714;53.056;8.690;2023-10-19T16:04:35;5.83;;;5.33;;
13291;SDS011;6714;53.056;8.690;2023-10-19T16:07:18;9.27;;;8.10;;
13291;SDS011;6714;53.056;8.690;2023-10-19T16:10:01;5.20;;;4.70;;
13291;SDS011;6714;53.056;8.690;2023-10-19T16:12:44;9.20;;;8.07;;
13291;SDS011;6714;53.056;8.690;2023-10-19T16:15:26;7.90;;;7.03;;
13291;SDS011;6714;53.056;8.690;2023-10-19T16:18:08;10.47;;;9.30;;
13291;SDS011;6714;53.056;8.690;2023-10-19T16:20:51;9.47;;;8.53;;
13291;SDS011;6714;53.056;8.690;2023-10-19T16:23:34;5.67;;;5.10;;
13291;SDS011;6714;53.056;8.690;2023-10-19T16:26:17;7.93;;;7.13;;
13291;SDS011;6714;53.056;8.690;2023-10-19T16:29:00;8.37;;;7.57;;
13291;SDS011;6714;53.056;8.690;2023-10-19T16:31:45;11.57;;;10.40;;
13291;SDS011;6714;53.056;8.690;2023-10-19T16:34:28;9.40;;;8.47;;
13291;SDS011;6714;53.056;8.690;2023-10-19T16:37:10;7.27;;;6.67;;